createdAt,value
2016-10-01T00:00:48.603Z,116
2016-10-01T00:01:49.110Z,116
2016-10-01T00:02:49.621Z,116
2016-10-01T00:03:50.126Z,116
2016-10-01T00:04:50.967Z,116
2016-10-01T00:05:51.157Z,129
2016-10-01T00:06:51.669Z,129
2016-10-01T00:07:52.185Z,129
2016-10-01T00:08:52.702Z,129
2016-10-01T00:09:53.203Z,129
2016-10-01T00:10:53.714Z,129
2016-10-01T00:11:54.223Z,129
2016-10-01T00:12:54.733Z,129
2016-10-01T00:13:55.394Z,129
2016-10-01T00:14:55.761Z,129
2016-10-01T00:15:56.281Z,138
2016-10-01T00:16:56.796Z,138
2016-10-01T00:17:57.321Z,138
2016-10-01T00:18:57.837Z,138
2016-10-01T00:19:58.369Z,138
2016-10-01T00:20:59.007Z,138
2016-10-01T00:21:59.369Z,138
2016-10-01T00:23:00.629Z,138
2016-10-01T00:24:00.389Z,138
2016-10-01T00:25:00.901Z,135
2016-10-01T00:26:01.417Z,135
2016-10-01T00:27:01.923Z,135
2016-10-01T00:28:02.452Z,135
2016-10-01T00:29:03.097Z,135
2016-10-01T00:30:03.461Z,135
2016-10-01T00:31:03.985Z,135
2016-10-01T00:32:04.494Z,135
2016-10-01T00:33:05.002Z,135
2016-10-01T00:34:05.521Z,135
2016-10-01T00:35:06.038Z,122
2016-10-01T00:36:06.541Z,122
2016-10-01T00:37:07.058Z,122
2016-10-01T00:38:07.563Z,122
2016-10-01T00:39:08.078Z,122
2016-10-01T00:40:08.596Z,122
2016-10-01T00:41:09.857Z,122
2016-10-01T00:42:09.778Z,122
2016-10-01T00:43:10.129Z,122
2016-10-01T00:44:10.649Z,122
2016-10-01T00:45:11.156Z,134
2016-10-01T00:46:11.669Z,134
2016-10-01T00:47:12.182Z,134
2016-10-01T00:48:12.701Z,134
2016-10-01T00:49:13.207Z,134
2016-10-01T00:50:13.722Z,134
2016-10-01T00:51:14.233Z,134
2016-10-01T00:52:14.747Z,134
2016-10-01T00:53:15.260Z,134
2016-10-01T00:54:15.791Z,134
2016-10-01T00:55:16.443Z,159
2016-10-01T00:56:16.955Z,159
2016-10-01T00:57:17.473Z,159
2016-10-01T00:58:17.840Z,159
2016-10-01T00:59:18.360Z,159
2016-10-01T01:00:18.876Z,159
2016-10-01T01:01:19.386Z,159
2016-10-01T01:02:20.076Z,159
2016-10-01T01:03:20.411Z,159
2016-10-01T01:04:20.927Z,159
2016-10-01T01:05:21.439Z,147
2016-10-01T01:06:21.950Z,147
2016-10-01T01:07:22.461Z,147
2016-10-01T01:08:22.970Z,147
2016-10-01T01:09:23.486Z,147
2016-10-01T01:10:23.999Z,147
2016-10-01T01:11:26.161Z,147
2016-10-01T01:12:25.170Z,147
2016-10-01T01:13:25.681Z,147
2016-10-01T01:14:26.068Z,147
2016-10-01T01:15:26.579Z,162
2016-10-01T01:16:27.217Z,162
2016-10-01T01:17:27.573Z,162
2016-10-01T01:18:28.089Z,162
2016-10-01T01:19:28.602Z,162
2016-10-01T01:20:29.141Z,162
2016-10-01T01:21:29.623Z,162
2016-10-01T01:22:30.134Z,162
2016-10-01T01:23:30.650Z,162
2016-10-01T01:24:31.173Z,162
2016-10-01T01:25:31.827Z,145
2016-10-01T01:26:32.190Z,145
2016-10-01T01:27:32.700Z,145
2016-10-01T01:28:33.212Z,145
2016-10-01T01:29:33.870Z,145
2016-10-01T01:30:34.235Z,145
2016-10-01T01:31:34.775Z,145
2016-10-01T01:32:35.264Z,145
2016-10-01T01:33:35.779Z,145
2016-10-01T01:34:36.288Z,145
2016-10-01T01:35:36.801Z,61
2016-10-01T01:36:37.313Z,61
2016-10-01T01:37:37.984Z,61
2016-10-01T01:38:38.365Z,61
2016-10-01T01:39:38.851Z,61
2016-10-01T01:40:39.513Z,61
2016-10-01T01:41:39.879Z,61
2016-10-01T01:42:40.383Z,61
2016-10-01T01:43:40.904Z,61
2016-10-01T01:44:41.410Z,61
2016-10-01T01:45:41.925Z,147
2016-10-01T01:46:42.584Z,147
2016-10-01T01:47:42.948Z,147
2016-10-01T01:48:43.464Z,147
2016-10-01T01:49:43.970Z,147
2016-10-01T01:50:44.487Z,147
2016-10-01T01:51:45.019Z,147
2016-10-01T01:52:45.521Z,147
2016-10-01T01:53:46.176Z,147
2016-10-01T01:54:46.718Z,147
2016-10-01T01:55:47.070Z,56
2016-10-01T01:56:47.565Z,56
2016-10-01T01:57:48.069Z,56
2016-10-01T01:58:48.582Z,56
2016-10-01T01:59:49.245Z,56
2016-10-01T02:00:49.601Z,56
2016-10-01T02:01:50.113Z,56
2016-10-01T02:02:50.632Z,56
2016-10-01T02:03:51.141Z,56
2016-10-01T02:04:51.805Z,56
2016-10-01T02:05:52.166Z,77
2016-10-01T02:06:52.682Z,77
2016-10-01T02:07:53.200Z,77
2016-10-01T02:08:53.716Z,77
2016-10-01T02:09:54.232Z,77
2016-10-01T02:10:54.749Z,77
2016-10-01T02:11:55.414Z,77
2016-10-01T02:12:55.775Z,77
2016-10-01T02:13:56.434Z,77
2016-10-01T02:14:56.957Z,77
2016-10-01T02:15:57.310Z,146
2016-10-01T02:16:57.822Z,146
2016-10-01T02:17:59.246Z,146
2016-10-01T02:18:58.858Z,146
2016-10-01T02:19:59.359Z,146
2016-10-01T02:20:59.878Z,146
2016-10-01T02:22:00.388Z,146
2016-10-01T02:23:01.054Z,146
2016-10-01T02:24:01.419Z,146
2016-10-01T02:25:01.936Z,81
2016-10-01T02:26:02.463Z,81
2016-10-01T02:27:02.972Z,81
2016-10-01T02:28:03.618Z,81
2016-10-01T02:29:04.151Z,81
2016-10-01T02:30:04.490Z,81
2016-10-01T02:31:05.008Z,81
2016-10-01T02:32:05.521Z,81
2016-10-01T02:33:06.181Z,81
2016-10-01T02:34:06.545Z,81
2016-10-01T02:35:07.055Z,66
2016-10-01T02:36:07.568Z,66
2016-10-01T02:37:08.080Z,66
2016-10-01T02:38:08.637Z,66
2016-10-01T02:39:09.133Z,66
2016-10-01T02:40:09.625Z,66
2016-10-01T02:41:10.130Z,66
2016-10-01T02:42:10.945Z,66
2016-10-01T02:43:11.160Z,66
2016-10-01T02:44:11.678Z,66
2016-10-01T02:45:12.187Z,116
2016-10-01T02:46:12.859Z,116
2016-10-01T02:47:13.225Z,116
2016-10-01T02:48:15.545Z,116
2016-10-01T02:49:14.243Z,116
2016-10-01T02:50:14.754Z,116
2016-10-01T02:51:15.267Z,116
2016-10-01T02:52:15.928Z,116
2016-10-01T02:53:16.290Z,116
2016-10-01T02:54:16.803Z,116
2016-10-01T02:55:17.309Z,159
2016-10-01T02:56:17.828Z,159
2016-10-01T02:57:18.333Z,159
2016-10-01T02:58:18.859Z,159
2016-10-01T02:59:19.354Z,159
2016-10-01T03:00:19.862Z,159
2016-10-01T03:01:20.382Z,159
2016-10-01T03:02:20.892Z,159
2016-10-01T03:03:21.403Z,159
2016-10-01T03:04:21.917Z,159
2016-10-01T03:05:22.426Z,140
2016-10-01T03:06:22.939Z,140
2016-10-01T03:07:23.601Z,140
2016-10-01T03:08:23.960Z,140
2016-10-01T03:09:24.470Z,140
2016-10-01T03:10:24.984Z,140
2016-10-01T03:11:25.493Z,140
2016-10-01T03:12:26.003Z,140
2016-10-01T03:13:26.664Z,140
2016-10-01T03:14:27.031Z,140
2016-10-01T03:15:27.541Z,163
2016-10-01T03:16:28.204Z,163
2016-10-01T03:17:28.712Z,163
2016-10-01T03:18:29.089Z,163
2016-10-01T03:19:29.582Z,163
2016-10-01T03:20:30.092Z,163
2016-10-01T03:21:30.614Z,163
2016-10-01T03:22:31.130Z,163
2016-10-01T03:23:31.661Z,163
2016-10-01T03:24:32.163Z,163
2016-10-01T03:25:32.678Z,113
2016-10-01T03:26:33.228Z,113
2016-10-01T03:27:33.713Z,113
2016-10-01T03:28:34.216Z,113
2016-10-01T03:29:34.732Z,113
2016-10-01T03:30:35.244Z,113
2016-10-01T03:31:35.756Z,113
2016-10-01T03:32:36.272Z,113
2016-10-01T03:33:36.931Z,113
2016-10-01T03:34:37.444Z,113
2016-10-01T03:35:39.598Z,146
2016-10-01T03:36:38.312Z,146
2016-10-01T03:37:38.828Z,146
2016-10-01T03:38:39.333Z,146
2016-10-01T03:39:39.846Z,146
2016-10-01T03:40:40.354Z,146
2016-10-01T03:41:41.017Z,146
2016-10-01T03:42:41.379Z,146
2016-10-01T03:43:41.892Z,146
2016-10-01T03:44:42.410Z,146
2016-10-01T03:45:42.924Z,169
2016-10-01T03:46:43.437Z,169
2016-10-01T03:47:43.949Z,169
2016-10-01T03:48:44.459Z,169
2016-10-01T03:49:44.974Z,169
2016-10-01T03:50:45.794Z,169
2016-10-01T03:51:46.004Z,169
2016-10-01T03:52:46.529Z,169
2016-10-01T03:53:47.032Z,169
2016-10-01T03:54:47.541Z,169
2016-10-01T03:55:48.057Z,155
2016-10-01T03:56:48.570Z,155
2016-10-01T03:57:49.086Z,155
2016-10-01T03:58:49.600Z,155
2016-10-01T03:59:50.118Z,155
2016-10-01T04:00:50.632Z,155
2016-10-01T04:01:51.160Z,155
2016-10-01T04:02:51.661Z,155
2016-10-01T04:03:52.171Z,155
2016-10-01T04:04:52.685Z,155
2016-10-01T04:05:53.347Z,153
2016-10-01T04:06:53.715Z,153
2016-10-01T04:07:54.227Z,153
2016-10-01T04:08:54.727Z,153
2016-10-01T04:09:55.250Z,153
2016-10-01T04:10:55.746Z,153
2016-10-01T04:11:56.260Z,153
2016-10-01T04:12:56.775Z,153
2016-10-01T04:13:57.276Z,153
2016-10-01T04:14:57.953Z,163
2016-10-01T04:15:58.295Z,163
2016-10-01T04:16:58.807Z,163
2016-10-01T04:17:59.319Z,163
2016-10-01T04:18:59.989Z,163
2016-10-01T04:20:00.348Z,163
2016-10-01T04:21:00.873Z,163
2016-10-01T04:22:01.372Z,163
2016-10-01T04:23:01.880Z,163
2016-10-01T04:24:03.597Z,163
2016-10-01T04:25:02.909Z,178
2016-10-01T04:26:03.411Z,178
2016-10-01T04:27:04.073Z,178
2016-10-01T04:28:04.437Z,178
2016-10-01T04:29:04.942Z,178
2016-10-01T04:30:05.455Z,178
2016-10-01T04:31:05.966Z,178
2016-10-01T04:32:06.480Z,178
2016-10-01T04:33:07.143Z,178
2016-10-01T04:34:07.499Z,178
2016-10-01T04:35:08.020Z,173
2016-10-01T04:36:08.532Z,173
2016-10-01T04:37:09.346Z,173
2016-10-01T04:38:09.561Z,173
2016-10-01T04:39:10.078Z,173
2016-10-01T04:40:10.593Z,173
2016-10-01T04:41:11.102Z,173
2016-10-01T04:42:11.618Z,173
2016-10-01T04:43:12.131Z,173
2016-10-01T04:44:12.648Z,173
2016-10-01T04:45:13.157Z,164
2016-10-01T04:46:13.670Z,164
2016-10-01T04:47:14.198Z,164
2016-10-01T04:48:14.842Z,164
2016-10-01T04:49:15.208Z,164
2016-10-01T04:50:15.728Z,164
2016-10-01T04:51:16.403Z,164
2016-10-01T04:52:16.897Z,164
2016-10-01T04:53:18.007Z,164
2016-10-01T04:54:17.768Z,164
2016-10-01T04:55:18.278Z,159
2016-10-01T04:56:18.794Z,159
2016-10-01T04:57:19.305Z,159
2016-10-01T04:58:19.968Z,159
2016-10-01T04:59:20.331Z,159
2016-10-01T05:00:20.993Z,159
2016-10-01T05:01:21.355Z,159
2016-10-01T05:02:21.875Z,159
2016-10-01T05:03:22.380Z,159
2016-10-01T05:04:22.922Z,159
2016-10-01T05:05:23.406Z,216
2016-10-01T05:06:24.065Z,216
2016-10-01T05:07:24.588Z,216
2016-10-01T05:08:24.945Z,216
2016-10-01T05:09:25.455Z,216
2016-10-01T05:10:25.973Z,216
2016-10-01T05:11:26.490Z,216
2016-10-01T05:12:27.015Z,216
2016-10-01T05:13:27.520Z,216
2016-10-01T05:14:28.189Z,216
2016-10-01T05:15:28.555Z,186
2016-10-01T05:16:29.218Z,186
2016-10-01T05:17:29.586Z,186
2016-10-01T05:18:30.247Z,186
2016-10-01T05:19:30.608Z,186
2016-10-01T05:20:31.118Z,186
2016-10-01T05:21:31.628Z,186
2016-10-01T05:22:32.148Z,186
2016-10-01T05:23:32.807Z,186
2016-10-01T05:24:33.170Z,186
2016-10-01T05:25:35.184Z,175
2016-10-01T05:26:34.192Z,175
2016-10-01T05:27:34.702Z,175
2016-10-01T05:28:35.213Z,175
2016-10-01T05:29:35.724Z,175
2016-10-01T05:30:36.236Z,175
2016-10-01T05:31:36.748Z,175
2016-10-01T05:32:37.277Z,175
2016-10-01T05:33:37.774Z,175
2016-10-01T05:34:38.284Z,175
2016-10-01T05:35:38.816Z,165
2016-10-01T05:36:39.455Z,165
2016-10-01T05:37:39.819Z,165
2016-10-01T05:38:40.333Z,165
2016-10-01T05:39:40.847Z,165
2016-10-01T05:40:41.511Z,165
2016-10-01T05:41:42.020Z,165
2016-10-01T05:42:42.529Z,165
2016-10-01T05:43:42.894Z,165
2016-10-01T05:44:43.398Z,165
2016-10-01T05:45:43.921Z,139
2016-10-01T05:46:44.574Z,139
2016-10-01T05:47:44.934Z,139
2016-10-01T05:48:45.444Z,139
2016-10-01T05:49:46.111Z,139
2016-10-01T05:50:46.476Z,139
2016-10-01T05:51:46.995Z,139
2016-10-01T05:52:47.512Z,139
2016-10-01T05:53:48.035Z,139
2016-10-01T05:54:48.539Z,139
2016-10-01T05:55:49.356Z,176
2016-10-01T05:56:49.561Z,176
2016-10-01T05:57:50.073Z,176
2016-10-01T05:58:50.582Z,176
2016-10-01T05:59:51.107Z,176
2016-10-01T06:00:51.755Z,176
2016-10-01T06:01:52.126Z,176
2016-10-01T06:02:52.631Z,176
2016-10-01T06:03:53.144Z,176
2016-10-01T06:04:53.659Z,176
2016-10-01T06:05:54.323Z,178
2016-10-01T06:06:54.690Z,178
2016-10-01T06:07:55.219Z,178
2016-10-01T06:08:55.738Z,178
2016-10-01T06:09:56.222Z,178
2016-10-01T06:10:58.533Z,178
2016-10-01T06:11:57.250Z,178
2016-10-01T06:12:57.757Z,178
2016-10-01T06:13:58.272Z,178
2016-10-01T06:14:58.783Z,210
2016-10-01T06:15:59.446Z,210
2016-10-01T06:16:59.808Z,210
2016-10-01T06:18:00.321Z,210
2016-10-01T06:19:00.835Z,210
2016-10-01T06:20:01.341Z,210
2016-10-01T06:21:01.858Z,210
2016-10-01T06:22:02.374Z,210
2016-10-01T06:23:03.032Z,210
2016-10-01T06:24:03.387Z,210
2016-10-01T06:25:03.901Z,186
2016-10-01T06:26:04.418Z,186
2016-10-01T06:27:05.228Z,186
2016-10-01T06:28:05.595Z,186
2016-10-01T06:29:05.961Z,186
2016-10-01T06:30:06.477Z,186
2016-10-01T06:31:06.990Z,186
2016-10-01T06:32:07.507Z,186
2016-10-01T06:33:08.021Z,186
2016-10-01T06:34:08.535Z,186
2016-10-01T06:35:09.046Z,143
2016-10-01T06:36:09.562Z,143
2016-10-01T06:37:10.081Z,143
2016-10-01T06:38:10.587Z,143
2016-10-01T06:39:11.105Z,143
2016-10-01T06:40:11.612Z,143
2016-10-01T06:41:13.170Z,143
2016-10-01T06:42:12.783Z,143
2016-10-01T06:43:13.142Z,143
2016-10-01T06:44:13.803Z,143
2016-10-01T06:45:14.164Z,168
2016-10-01T06:46:14.678Z,168
2016-10-01T06:47:25.245Z,168
2016-10-01T06:48:15.695Z,168
2016-10-01T06:49:16.242Z,168
2016-10-01T06:50:16.719Z,168
2016-10-01T06:51:17.395Z,168
2016-10-01T06:52:17.768Z,168
2016-10-01T06:53:18.287Z,168
2016-10-01T06:54:18.809Z,168
2016-10-01T06:55:19.316Z,176
2016-10-01T06:56:20.129Z,176
2016-10-01T06:57:20.490Z,176
2016-10-01T06:58:20.885Z,176
2016-10-01T06:59:21.370Z,176
2016-10-01T07:00:21.877Z,176
2016-10-01T07:01:22.389Z,176
2016-10-01T07:02:22.914Z,176
2016-10-01T07:03:23.416Z,176
2016-10-01T07:04:23.931Z,176
2016-10-01T07:05:24.446Z,178
2016-10-01T07:06:24.963Z,178
2016-10-01T07:07:25.474Z,178
2016-10-01T07:08:25.987Z,178
2016-10-01T07:09:26.649Z,178
2016-10-01T07:10:27.010Z,178
2016-10-01T07:11:27.529Z,178
2016-10-01T07:12:28.034Z,178
2016-10-01T07:13:28.554Z,178
2016-10-01T07:14:29.071Z,178
2016-10-01T07:15:29.727Z,181
2016-10-01T07:16:30.090Z,181
2016-10-01T07:17:30.602Z,181
2016-10-01T07:18:31.115Z,181
2016-10-01T07:19:31.632Z,181
2016-10-01T07:20:32.139Z,181
2016-10-01T07:21:32.688Z,181
2016-10-01T07:22:33.168Z,181
2016-10-01T07:23:33.835Z,181
2016-10-01T07:24:34.351Z,181
2016-10-01T07:25:34.710Z,166
2016-10-01T07:26:35.227Z,166
2016-10-01T07:27:35.724Z,166
2016-10-01T07:28:36.263Z,166
2016-10-01T07:29:36.752Z,166
2016-10-01T07:30:37.263Z,166
2016-10-01T07:31:37.771Z,166
2016-10-01T07:32:38.281Z,166
2016-10-01T07:33:38.947Z,166
2016-10-01T07:34:39.307Z,166
2016-10-01T07:35:39.820Z,180
2016-10-01T07:36:40.331Z,180
2016-10-01T07:37:40.984Z,180
2016-10-01T07:38:41.348Z,180
2016-10-01T07:39:41.857Z,180
2016-10-01T07:40:42.523Z,180
2016-10-01T07:41:42.890Z,180
2016-10-01T07:42:43.410Z,180
2016-10-01T07:43:44.080Z,180
2016-10-01T07:44:44.444Z,180
2016-10-01T07:45:44.956Z,182
2016-10-01T07:46:45.471Z,182
2016-10-01T07:47:45.980Z,182
2016-10-01T07:48:46.948Z,182
2016-10-01T07:49:47.158Z,182
2016-10-01T07:50:47.671Z,182
2016-10-01T07:51:48.034Z,182
2016-10-01T07:52:48.542Z,182
2016-10-01T07:53:49.057Z,182
2016-10-01T07:54:49.712Z,182
2016-10-01T07:55:50.228Z,192
2016-10-01T07:56:50.592Z,192
2016-10-01T07:57:51.110Z,192
2016-10-01T07:58:51.618Z,192
2016-10-01T07:59:52.132Z,192
2016-10-01T08:00:52.649Z,192
2016-10-01T08:01:53.160Z,192
2016-10-01T08:02:53.668Z,192
2016-10-01T08:03:54.188Z,192
2016-10-01T08:04:54.721Z,192
2016-10-01T08:05:55.233Z,187
2016-10-01T08:06:55.721Z,187
2016-10-01T08:07:56.231Z,187
2016-10-01T08:08:56.749Z,187
2016-10-01T08:09:57.256Z,187
2016-10-01T08:10:57.768Z,187
2016-10-01T08:12:00.080Z,187
2016-10-01T08:12:58.790Z,187
2016-10-01T08:13:59.315Z,187
2016-10-01T08:14:59.813Z,185
2016-10-01T08:16:00.335Z,185
2016-10-01T08:17:00.889Z,185
2016-10-01T08:18:01.507Z,185
2016-10-01T08:19:01.880Z,185
2016-10-01T08:20:02.396Z,185
2016-10-01T08:21:02.912Z,185
2016-10-01T08:22:03.421Z,185
2016-10-01T08:23:03.932Z,185
2016-10-01T08:24:04.449Z,185
2016-10-01T08:25:04.955Z,148
2016-10-01T08:26:05.619Z,148
2016-10-01T08:27:07.631Z,148
2016-10-01T08:28:06.640Z,148
2016-10-01T08:29:06.996Z,148
2016-10-01T08:30:07.664Z,148
2016-10-01T08:31:08.019Z,148
2016-10-01T08:32:08.528Z,148
2016-10-01T08:33:09.190Z,148
2016-10-01T08:34:09.552Z,148
2016-10-01T08:35:10.215Z,164
2016-10-01T08:36:10.574Z,164
2016-10-01T08:37:11.109Z,164
2016-10-01T08:38:11.746Z,164
2016-10-01T08:39:12.113Z,164
2016-10-01T08:40:12.624Z,164
2016-10-01T08:41:13.135Z,164
2016-10-01T08:42:13.648Z,164
2016-10-01T08:43:14.309Z,164
2016-10-01T08:44:14.676Z,164
2016-10-01T08:45:15.333Z,146
2016-10-01T08:46:15.695Z,146
2016-10-01T08:47:16.209Z,146
2016-10-01T08:48:16.716Z,146
2016-10-01T08:49:17.225Z,146
2016-10-01T08:50:17.736Z,146
2016-10-01T08:51:18.251Z,146
2016-10-01T08:52:18.911Z,146
2016-10-01T08:53:19.276Z,146
2016-10-01T08:54:19.788Z,146
2016-10-01T08:55:20.297Z,166
2016-10-01T08:56:20.834Z,166
2016-10-01T08:57:22.257Z,166
2016-10-01T08:58:21.861Z,166
2016-10-01T08:59:22.384Z,166
2016-10-01T09:00:23.183Z,166
2016-10-01T09:01:23.541Z,166
2016-10-01T09:02:23.922Z,166
2016-10-01T09:03:24.415Z,166
2016-10-01T09:04:24.925Z,166
2016-10-01T09:05:25.438Z,157
2016-10-01T09:06:25.950Z,157
2016-10-01T09:07:26.476Z,157
2016-10-01T09:08:26.985Z,157
2016-10-01T09:09:27.633Z,157
2016-10-01T09:10:28.022Z,157
2016-10-01T09:11:28.512Z,157
2016-10-01T09:12:29.022Z,157
2016-10-01T09:13:29.531Z,157
2016-10-01T09:14:30.193Z,157
2016-10-01T09:15:30.559Z,188
2016-10-01T09:16:31.071Z,188
2016-10-01T09:17:31.581Z,188
2016-10-01T09:18:32.245Z,188
2016-10-01T09:19:32.768Z,188
2016-10-01T09:20:33.116Z,188
2016-10-01T09:21:33.627Z,188
2016-10-01T09:22:34.142Z,188
2016-10-01T09:23:34.651Z,188
2016-10-01T09:24:35.316Z,188
2016-10-01T09:25:35.677Z,193
2016-10-01T09:26:36.199Z,193
2016-10-01T09:27:36.856Z,193
2016-10-01T09:28:37.371Z,193
2016-10-01T09:29:37.736Z,193
2016-10-01T09:30:38.253Z,193
2016-10-01T09:31:38.763Z,193
2016-10-01T09:32:39.282Z,193
2016-10-01T09:33:39.946Z,193
2016-10-01T09:34:40.311Z,193
2016-10-01T09:35:40.823Z,212
2016-10-01T09:36:41.483Z,212
2016-10-01T09:37:42.001Z,212
2016-10-01T09:38:42.510Z,212
2016-10-01T09:39:42.872Z,212
2016-10-01T09:40:43.381Z,212
2016-10-01T09:41:44.050Z,212
2016-10-01T09:42:44.405Z,212
2016-10-01T09:43:44.917Z,212
2016-10-01T09:44:45.432Z,212
2016-10-01T09:45:46.095Z,213
2016-10-01T09:46:46.453Z,213
2016-10-01T09:47:46.958Z,213
2016-10-01T09:48:47.470Z,213
2016-10-01T09:49:47.984Z,213
2016-10-01T09:50:48.646Z,213
2016-10-01T09:51:49.021Z,213
2016-10-01T09:52:49.518Z,213
2016-10-01T09:53:50.048Z,213
2016-10-01T09:54:50.692Z,213
2016-10-01T09:55:51.211Z,208
2016-10-01T09:56:51.569Z,208
2016-10-01T09:57:52.076Z,208
2016-10-01T09:58:54.537Z,208
2016-10-01T09:59:53.099Z,208
2016-10-01T10:00:53.606Z,208
2016-10-01T10:01:54.119Z,208
2016-10-01T10:02:54.628Z,208
2016-10-01T10:03:55.146Z,208
2016-10-01T10:04:55.804Z,208
2016-10-01T10:05:56.318Z,216
2016-10-01T10:06:56.680Z,216
2016-10-01T10:07:57.190Z,216
2016-10-01T10:08:57.703Z,216
2016-10-01T10:09:58.215Z,216
2016-10-01T10:10:58.737Z,216
2016-10-01T10:11:59.269Z,216
2016-10-01T10:12:59.770Z,216
2016-10-01T10:14:00.279Z,216
2016-10-01T10:15:00.791Z,197
2016-10-01T10:16:01.300Z,197
2016-10-01T10:17:01.836Z,197
2016-10-01T10:18:02.319Z,197
2016-10-01T10:19:02.838Z,197
2016-10-01T10:20:03.357Z,197
2016-10-01T10:21:04.009Z,197
2016-10-01T10:22:04.384Z,197
2016-10-01T10:23:05.038Z,197
2016-10-01T10:24:05.410Z,197
2016-10-01T10:25:05.914Z,197
2016-10-01T10:26:06.428Z,197
2016-10-01T10:27:06.942Z,197
2016-10-01T10:28:07.448Z,197
2016-10-01T10:29:08.861Z,197
2016-10-01T10:30:08.620Z,197
2016-10-01T10:31:08.985Z,197
2016-10-01T10:32:09.494Z,197
2016-10-01T10:33:10.012Z,197
2016-10-01T10:34:10.665Z,197
2016-10-01T10:35:11.028Z,187
2016-10-01T10:36:11.559Z,187
2016-10-01T10:37:12.047Z,187
2016-10-01T10:38:12.560Z,187
2016-10-01T10:39:13.068Z,187
2016-10-01T10:40:13.595Z,187
2016-10-01T10:41:14.090Z,187
2016-10-01T10:42:14.623Z,187
2016-10-01T10:43:15.114Z,187
2016-10-01T10:44:15.625Z,187
2016-10-01T10:45:16.142Z,179
2016-10-01T10:46:16.650Z,179
2016-10-01T10:47:17.319Z,179
2016-10-01T10:48:17.690Z,179
2016-10-01T10:49:18.378Z,179
2016-10-01T10:50:18.876Z,179
2016-10-01T10:51:19.243Z,179
2016-10-01T10:52:19.755Z,179
2016-10-01T10:53:20.269Z,179
2016-10-01T10:54:20.776Z,179
2016-10-01T10:55:21.287Z,174
2016-10-01T10:56:21.800Z,174
2016-10-01T10:57:22.312Z,174
2016-10-01T10:58:22.827Z,174
2016-10-01T10:59:23.489Z,174
2016-10-01T11:00:23.862Z,174
2016-10-01T11:01:24.509Z,174
2016-10-01T11:02:24.877Z,174
2016-10-01T11:03:25.413Z,174
2016-10-01T11:04:25.925Z,174
2016-10-01T11:05:26.408Z,141
2016-10-01T11:06:26.923Z,141
2016-10-01T11:07:27.584Z,141
2016-10-01T11:08:27.944Z,141
2016-10-01T11:09:28.608Z,141
2016-10-01T11:10:28.970Z,141
2016-10-01T11:11:29.485Z,141
2016-10-01T11:12:30.000Z,141
2016-10-01T11:13:30.654Z,141
2016-10-01T11:14:31.038Z,141
2016-10-01T11:15:31.534Z,167
2016-10-01T11:16:32.793Z,167
2016-10-01T11:17:32.553Z,167
2016-10-01T11:18:33.222Z,167
2016-10-01T11:19:33.575Z,167
2016-10-01T11:20:34.095Z,167
2016-10-01T11:21:34.605Z,167
2016-10-01T11:22:35.256Z,167
2016-10-01T11:23:35.618Z,167
2016-10-01T11:24:36.126Z,167
2016-10-01T11:25:36.643Z,160
2016-10-01T11:26:37.168Z,160
2016-10-01T11:27:37.675Z,160
2016-10-01T11:28:38.209Z,160
2016-10-01T11:29:38.699Z,160
2016-10-01T11:30:39.215Z,160
2016-10-01T11:31:39.723Z,160
2016-10-01T11:32:40.386Z,160
2016-10-01T11:33:40.745Z,160
2016-10-01T11:34:42.604Z,160
2016-10-01T11:35:41.759Z,155
2016-10-01T11:36:42.270Z,155
2016-10-01T11:37:42.779Z,155
2016-10-01T11:38:43.294Z,155
2016-10-01T11:39:43.804Z,155
2016-10-01T11:40:44.314Z,155
2016-10-01T11:41:44.823Z,155
2016-10-01T11:42:45.337Z,155
2016-10-01T11:43:45.855Z,155
2016-10-01T11:44:46.365Z,155
2016-10-01T11:45:46.879Z,165
2016-10-01T11:46:47.391Z,165
2016-10-01T11:47:48.055Z,165
2016-10-01T11:48:48.419Z,165
2016-10-01T11:49:48.931Z,165
2016-10-01T11:50:49.436Z,165
2016-10-01T11:51:49.952Z,165
2016-10-01T11:52:50.606Z,165
2016-10-01T11:53:50.968Z,165
2016-10-01T11:54:51.485Z,165
2016-10-01T11:55:52.145Z,167
2016-10-01T11:56:52.508Z,167
2016-10-01T11:57:53.019Z,167
2016-10-01T11:58:53.537Z,167
2016-10-01T11:59:54.046Z,167
2016-10-01T12:00:54.706Z,167
2016-10-01T12:01:55.070Z,167
2016-10-01T12:02:55.594Z,167
2016-10-01T12:03:56.103Z,167
2016-10-01T12:04:56.765Z,157
2016-10-01T12:05:57.131Z,157
2016-10-01T12:06:57.811Z,157
2016-10-01T12:07:58.151Z,157
2016-10-01T12:08:58.664Z,157
2016-10-01T12:09:59.180Z,157
2016-10-01T12:10:59.701Z,157
2016-10-01T12:12:00.213Z,157
2016-10-01T12:13:00.732Z,157
2016-10-01T12:14:01.235Z,157
2016-10-01T12:15:01.750Z,157
2016-10-01T12:16:02.407Z,157
2016-10-01T12:17:02.773Z,157
2016-10-01T12:18:03.279Z,157
2016-10-01T12:19:03.791Z,157
2016-10-01T12:20:04.301Z,157
2016-10-01T12:21:04.813Z,157
2016-10-01T12:22:05.332Z,157
2016-10-01T12:23:05.986Z,157
2016-10-01T12:24:06.502Z,157
2016-10-01T12:25:06.868Z,168
2016-10-01T12:26:07.374Z,168
2016-10-01T12:27:07.897Z,168
2016-10-01T12:28:08.398Z,168
2016-10-01T12:29:09.056Z,168
2016-10-01T12:30:09.421Z,168
2016-10-01T12:31:09.964Z,168
2016-10-01T12:32:10.454Z,168
2016-10-01T12:33:11.110Z,168
2016-10-01T12:34:11.485Z,168
2016-10-01T12:35:11.987Z,151
2016-10-01T12:36:12.501Z,151
2016-10-01T12:37:13.021Z,151
2016-10-01T12:38:13.537Z,151
2016-10-01T12:39:14.059Z,151
2016-10-01T12:40:14.722Z,151
2016-10-01T12:41:15.087Z,151
2016-10-01T12:42:15.600Z,151
2016-10-01T12:43:16.111Z,151
2016-10-01T12:44:16.925Z,151
2016-10-01T12:45:17.140Z,152
2016-10-01T12:46:17.645Z,152
2016-10-01T12:47:18.161Z,152
2016-10-01T12:48:18.678Z,152
2016-10-01T12:49:19.343Z,152
2016-10-01T12:50:19.694Z,152
2016-10-01T12:51:20.357Z,152
2016-10-01T12:52:20.725Z,152
2016-10-01T12:53:21.228Z,152
2016-10-01T12:54:21.740Z,152
2016-10-01T12:55:22.249Z,164
2016-10-01T12:56:22.764Z,164
2016-10-01T12:57:23.276Z,164
2016-10-01T12:58:23.939Z,164
2016-10-01T13:00:20.615Z,164
2016-10-01T13:01:25.331Z,164
2016-10-01T13:02:25.844Z,164
2016-10-01T13:03:26.352Z,164
2016-10-01T13:04:26.869Z,164
2016-10-01T13:05:27.384Z,138
2016-10-01T13:06:27.893Z,138
2016-10-01T13:07:30.205Z,138
2016-10-01T13:08:29.063Z,138
2016-10-01T13:09:29.429Z,138
2016-10-01T13:10:29.945Z,138
2016-10-01T13:11:30.464Z,138
2016-10-01T13:12:30.981Z,138
2016-10-01T13:13:31.543Z,138
2016-10-01T13:14:31.999Z,138
2016-10-01T13:15:32.516Z,146
2016-10-01T13:16:33.035Z,146
2016-10-01T13:17:33.700Z,146
2016-10-01T13:18:34.064Z,146
2016-10-01T13:19:34.733Z,146
2016-10-01T13:20:35.092Z,146
2016-10-01T13:21:35.610Z,146
2016-10-01T13:22:36.268Z,146
2016-10-01T13:23:36.628Z,146
2016-10-01T13:24:37.140Z,146
2016-10-01T13:25:37.802Z,145
2016-10-01T13:26:38.309Z,145
2016-10-01T13:27:38.670Z,145
2016-10-01T13:28:39.333Z,145
2016-10-01T13:29:39.693Z,145
2016-10-01T13:30:40.204Z,145
2016-10-01T13:31:40.718Z,145
2016-10-01T13:32:41.251Z,145
2016-10-01T13:33:41.753Z,145
2016-10-01T13:34:42.257Z,145
2016-10-01T13:35:42.768Z,148
2016-10-01T13:36:43.430Z,148
2016-10-01T13:37:45.446Z,148
2016-10-01T13:38:44.304Z,148
2016-10-01T13:39:44.807Z,148
2016-10-01T13:40:45.469Z,148
2016-10-01T13:41:45.836Z,148
2016-10-01T13:42:46.513Z,148
2016-10-01T13:43:46.881Z,148
2016-10-01T13:44:47.372Z,148
2016-10-01T13:45:47.885Z,123
2016-10-01T13:46:48.397Z,123
2016-10-01T13:47:49.077Z,123
2016-10-01T13:48:49.418Z,123
2016-10-01T13:49:49.924Z,123
2016-10-01T13:50:50.439Z,123
2016-10-01T13:51:51.098Z,123
2016-10-01T13:52:53.256Z,123
2016-10-01T13:53:52.733Z,123
2016-10-01T13:54:52.483Z,123
2016-10-01T13:55:52.998Z,114